Terminal Aerodrome Forecast
Issued by NWS Atlanta, GA

Home | Current Version | Previous Version | Text Only | Print | Product List | Glossary On
Versions: 1 2 3 4 5 6 7 8 9 10 11 12 13 14 15 16 17 18 19 20 21 22 23 24 25 26 27 28 29 30 31
000
FTUS42 KFFC 211731
TAFAHN
TAF
KAHN 211731Z 2118/2218 11006KT P6SM BKN050
     FM212100 10006KT P6SM VCSH SCT015 BKN035
     FM212300 09006KT P6SM VCSH BKN025
     FM220200 09004KT 5SM -RA BR OVC015
     FM220500 09004KT 3SM -RA BR OVC006
     FM220800 09004KT 2SM -RA BR OVC003
     FM221500 08007KT 5SM -RA BR OVC008=

USA.gov is the U.S. government's official web portal to all federal, state and local government web resources and services.